Corning, Kansas
Current Conditions -  °F | °C
As of 4:55 PM on Saturday 20 Dec 2014 (Local Time) from KMYZ Reporting Station
Haze Haze  
Wind Chill: 36°   Ceiling: 700
Heat Index: 36°   Visibility: 4mi
Dew Point: 36°   Wind: 3mph
Humidity: 100%   Direction: 130°SE
Pressure: 30.06"   Gusts: NA
Location:  39.66°N, 96.03°W
Report Text: KMYZ 202255Z AUTO 13003KT 4SM BR BKN007 02/02 A3006 RMK AO2
Loading
Personal Weather Stations






























Interactive Weather Map New forecast layout! Learn more

10-Day Weather Forecast

Advertisements
Track Severe Weather on mobile